sensor_id;sensor_type;location;lat;lon;timestamp;temperature;humidity
82901;DHT22;72673;50.822;3.280;2024-03-02T00:00:11;7.10;99.90
82901;DHT22;72673;50.822;3.280;2024-03-02T00:02:45;7.10;99.90
82901;DHT22;72673;50.822;3.280;2024-03-02T00:05:12;7.20;99.90
82901;DHT22;72673;50.822;3.280;2024-03-02T00:07:42;7.10;99.90
82901;DHT22;72673;50.822;3.280;2024-03-02T00:10:08;7.10;99.90
82901;DHT22;72673;50.822;3.280;2024-03-02T00:12:36;7.20;99.90
82901;DHT22;72673;50.822;3.280;2024-03-02T00:17:54;7.00;99.90
82901;DHT22;72673;50.822;3.280;2024-03-02T00:20:22;6.90;99.90
82901;DHT22;72673;50.822;3.280;2024-03-02T00:22:51;7.00;99.90
82901;DHT22;72673;50.822;3.280;2024-03-02T00:25:17;7.00;99.90
82901;DHT22;72673;50.822;3.280;2024-03-02T00:27:47;7.00;99.90
82901;DHT22;72673;50.822;3.280;2024-03-02T00:30:44;6.90;99.90
82901;DHT22;72673;50.822;3.280;2024-03-02T00:33:12;6.90;99.90
82901;DHT22;72673;50.822;3.280;2024-03-02T00:35:38;7.00;99.90
82901;DHT22;72673;50.822;3.280;2024-03-02T00:38:05;6.90;99.90
82901;DHT22;72673;50.822;3.280;2024-03-02T00:40:31;6.90;99.90
82901;DHT22;72673;50.822;3.280;2024-03-02T00:42:57;6.90;99.90
82901;DHT22;72673;50.822;3.280;2024-03-02T00:45:24;6.90;99.90
82901;DHT22;72673;50.822;3.280;2024-03-02T00:47:50;6.80;99.90
82901;DHT22;72673;50.822;3.280;2024-03-02T00:50:17;6.80;99.90
82901;DHT22;72673;50.822;3.280;2024-03-02T00:52:42;6.90;99.90
82901;DHT22;72673;50.822;3.280;2024-03-02T00:55:08;6.80;99.90
82901;DHT22;72673;50.822;3.280;2024-03-02T00:57:34;6.90;99.90
82901;DHT22;72673;50.822;3.280;2024-03-02T01:00:00;6.80;99.90
82901;DHT22;72673;50.822;3.280;2024-03-02T01:02:28;6.60;99.90
82901;DHT22;72673;50.822;3.280;2024-03-02T01:04:54;6.80;99.90
82901;DHT22;72673;50.822;3.280;2024-03-02T01:07:20;6.80;99.90
82901;DHT22;72673;50.822;3.280;2024-03-02T01:09:46;6.80;99.90
82901;DHT22;72673;50.822;3.280;2024-03-02T01:12:11;6.80;99.90
82901;DHT22;72673;50.822;3.280;2024-03-02T01:14:37;6.80;99.90
82901;DHT22;72673;50.822;3.280;2024-03-02T01:17:02;6.80;99.90
82901;DHT22;72673;50.822;3.280;2024-03-02T01:19:30;6.80;99.90
82901;DHT22;72673;50.822;3.280;2024-03-02T01:21:56;6.70;99.90
82901;DHT22;72673;50.822;3.280;2024-03-02T01:24:22;6.70;99.90
82901;DHT22;72673;50.822;3.280;2024-03-02T01:26:47;6.70;99.90
82901;DHT22;72673;50.822;3.280;2024-03-02T01:29:13;6.70;99.90
82901;DHT22;72673;50.822;3.280;2024-03-02T01:31:38;6.70;99.90
82901;DHT22;72673;50.822;3.280;2024-03-02T01:34:07;6.60;99.90
82901;DHT22;72673;50.822;3.280;2024-03-02T01:36:33;6.50;99.90
82901;DHT22;72673;50.822;3.280;2024-03-02T01:38:58;6.60;99.90
82901;DHT22;72673;50.822;3.280;2024-03-02T01:41:24;6.60;99.90
82901;DHT22;72673;50.822;3.280;2024-03-02T01:43:50;6.60;99.90
82901;DHT22;72673;50.822;3.280;2024-03-02T01:46:15;6.60;99.90
82901;DHT22;72673;50.822;3.280;2024-03-02T01:48:41;6.50;99.90
82901;DHT22;72673;50.822;3.280;2024-03-02T01:51:07;6.60;99.90
82901;DHT22;72673;50.822;3.280;2024-03-02T01:53:34;6.50;99.90
82901;DHT22;72673;50.822;3.280;2024-03-02T01:56:00;6.50;99.90
82901;DHT22;72673;50.822;3.280;2024-03-02T01:58:27;6.50;99.90
82901;DHT22;72673;50.822;3.280;2024-03-02T02:00:52;6.50;99.90
82901;DHT22;72673;50.822;3.280;2024-03-02T02:03:18;6.50;99.90
82901;DHT22;72673;50.822;3.280;2024-03-02T02:05:44;6.50;99.90
82901;DHT22;72673;50.822;3.280;2024-03-02T02:08:10;6.40;99.90
82901;DHT22;72673;50.822;3.280;2024-03-02T02:10:36;6.40;99.90
82901;DHT22;72673;50.822;3.280;2024-03-02T02:13:02;6.50;99.90
82901;DHT22;72673;50.822;3.280;2024-03-02T02:15:31;6.50;99.90
82901;DHT22;72673;50.822;3.280;2024-03-02T02:17:58;6.40;99.90
82901;DHT22;72673;50.822;3.280;2024-03-02T02:20:24;6.50;99.90
82901;DHT22;72673;50.822;3.280;2024-03-02T02:23:05;6.30;99.90
82901;DHT22;72673;50.822;3.280;2024-03-02T02:25:33;6.40;99.90
82901;DHT22;72673;50.822;3.280;2024-03-02T02:27:59;6.40;99.90
82901;DHT22;72673;50.822;3.280;2024-03-02T02:30:30;6.30;99.90
82901;DHT22;72673;50.822;3.280;2024-03-02T02:32:56;6.20;99.90
82901;DHT22;72673;50.822;3.280;2024-03-02T02:35:21;6.30;99.90
82901;DHT22;72673;50.822;3.280;2024-03-02T02:37:48;6.40;99.90
82901;DHT22;72673;50.822;3.280;2024-03-02T02:40:15;6.40;99.90
82901;DHT22;72673;50.822;3.280;2024-03-02T02:42:41;6.30;99.90
82901;DHT22;72673;50.822;3.280;2024-03-02T02:45:07;6.40;99.90
82901;DHT22;72673;50.822;3.280;2024-03-02T02:47:33;6.40;99.90
82901;DHT22;72673;50.822;3.280;2024-03-02T02:50:02;6.40;99.90
82901;DHT22;72673;50.822;3.280;2024-03-02T02:52:32;6.40;99.90
82901;DHT22;72673;50.822;3.280;2024-03-02T02:54:59;6.30;99.90
82901;DHT22;72673;50.822;3.280;2024-03-02T02:57:25;6.40;99.90
82901;DHT22;72673;50.822;3.280;2024-03-02T02:59:50;6.30;99.90
82901;DHT22;72673;50.822;3.280;2024-03-02T03:02:16;6.30;99.90
82901;DHT22;72673;50.822;3.280;2024-03-02T03:04:41;6.30;99.90
82901;DHT22;72673;50.822;3.280;2024-03-02T03:07:07;6.30;99.90
82901;DHT22;72673;50.822;3.280;2024-03-02T03:09:33;6.30;99.90
82901;DHT22;72673;50.822;3.280;2024-03-02T03:11:58;6.20;99.90
82901;DHT22;72673;50.822;3.280;2024-03-02T03:14:24;6.30;99.90
82901;DHT22;72673;50.822;3.280;2024-03-02T03:16:49;6.40;99.90
82901;DHT22;72673;50.822;3.280;2024-03-02T03:19:16;6.40;99.90
82901;DHT22;72673;50.822;3.280;2024-03-02T03:21:43;6.40;99.90
82901;DHT22;72673;50.822;3.280;2024-03-02T03:24:09;6.50;99.90
82901;DHT22;72673;50.822;3.280;2024-03-02T03:26:36;6.50;99.90
82901;DHT22;72673;50.822;3.280;2024-03-02T03:29:02;6.30;99.90
82901;DHT22;72673;50.822;3.280;2024-03-02T03:31:29;6.30;99.90
82901;DHT22;72673;50.822;3.280;2024-03-02T03:33:54;6.30;99.90
82901;DHT22;72673;50.822;3.280;2024-03-02T03:36:20;6.30;99.90
82901;DHT22;72673;50.822;3.280;2024-03-02T03:38:46;6.30;99.90
82901;DHT22;72673;50.822;3.280;2024-03-02T03:41:11;6.30;99.90
82901;DHT22;72673;50.822;3.280;2024-03-02T03:43:37;6.30;99.90
82901;DHT22;72673;50.822;3.280;2024-03-02T03:46:03;6.30;99.90
82901;DHT22;72673;50.822;3.280;2024-03-02T03:48:28;6.20;99.90
82901;DHT22;72673;50.822;3.280;2024-03-02T03:50:56;6.20;99.90
82901;DHT22;72673;50.822;3.280;2024-03-02T03:53:22;6.20;99.90
82901;DHT22;72673;50.822;3.280;2024-03-02T03:55:48;6.20;99.90
82901;DHT22;72673;50.822;3.280;2024-03-02T03:58:15;6.20;99.90
82901;DHT22;72673;50.822;3.280;2024-03-02T04:00:42;6.30;99.90
82901;DHT22;72673;50.822;3.280;2024-03-02T04:03:08;6.30;99.90
82901;DHT22;72673;50.822;3.280;2024-03-02T04:05:33;6.30;99.90
82901;DHT22;72673;50.822;3.280;2024-03-02T04:07:59;6.30;99.90
82901;DHT22;72673;50.822;3.280;2024-03-02T04:10:25;6.40;99.90
82901;DHT22;72673;50.822;3.280;2024-03-02T04:12:51;6.30;99.90
82901;DHT22;72673;50.822;3.280;2024-03-02T04:15:16;6.30;99.90
82901;DHT22;72673;50.822;3.280;2024-03-02T04:17:44;6.30;99.90
82901;DHT22;72673;50.822;3.280;2024-03-02T04:20:10;6.30;99.90
82901;DHT22;72673;50.822;3.280;2024-03-02T04:22:38;6.30;99.90
82901;DHT22;72673;50.822;3.280;2024-03-02T04:25:04;6.30;99.90
82901;DHT22;72673;50.822;3.280;2024-03-02T04:27:32;6.30;99.90
82901;DHT22;72673;50.822;3.280;2024-03-02T04:29:59;6.30;99.90
82901;DHT22;72673;50.822;3.280;2024-03-02T04:32:26;6.30;99.90
82901;DHT22;72673;50.822;3.280;2024-03-02T04:34:52;6.20;99.90
82901;DHT22;72673;50.822;3.280;2024-03-02T04:37:18;6.10;99.90
82901;DHT22;72673;50.822;3.280;2024-03-02T04:39:43;6.20;99.90
82901;DHT22;72673;50.822;3.280;2024-03-02T04:42:09;6.20;99.90
82901;DHT22;72673;50.822;3.280;2024-03-02T04:44:35;6.20;99.90
82901;DHT22;72673;50.822;3.280;2024-03-02T04:47:00;6.10;99.90
82901;DHT22;72673;50.822;3.280;2024-03-02T04:49:26;6.10;99.90
82901;DHT22;72673;50.822;3.280;2024-03-02T04:51:51;6.10;99.90
82901;DHT22;72673;50.822;3.280;2024-03-02T04:54:17;6.10;99.90
82901;DHT22;72673;50.822;3.280;2024-03-02T04:56:43;6.10;99.90
82901;DHT22;72673;50.822;3.280;2024-03-02T04:59:10;6.10;99.90
82901;DHT22;72673;50.822;3.280;2024-03-02T05:01:36;6.10;99.90
82901;DHT22;72673;50.822;3.280;2024-03-02T05:04:01;6.10;99.90
82901;DHT22;72673;50.822;3.280;2024-03-02T05:06:27;6.00;99.90
82901;DHT22;72673;50.822;3.280;2024-03-02T05:08:53;6.10;99.90
82901;DHT22;72673;50.822;3.280;2024-03-02T05:11:18;6.10;99.90
82901;DHT22;72673;50.822;3.280;2024-03-02T05:14:03;5.90;99.90
82901;DHT22;72673;50.822;3.280;2024-03-02T05:16:28;5.90;99.90
82901;DHT22;72673;50.822;3.280;2024-03-02T05:18:54;6.00;99.90
82901;DHT22;72673;50.822;3.280;2024-03-02T05:21:20;6.00;99.90
82901;DHT22;72673;50.822;3.280;2024-03-02T05:23:45;6.00;99.90
82901;DHT22;72673;50.822;3.280;2024-03-02T05:26:11;6.00;99.90
82901;DHT22;72673;50.822;3.280;2024-03-02T05:28:39;6.00;99.90
82901;DHT22;72673;50.822;3.280;2024-03-02T05:31:05;6.00;99.90
82901;DHT22;72673;50.822;3.280;2024-03-02T05:33:31;6.00;99.90
82901;DHT22;72673;50.822;3.280;2024-03-02T05:35:58;6.00;99.90
82901;DHT22;72673;50.822;3.280;2024-03-02T05:38:24;6.00;99.90
82901;DHT22;72673;50.822;3.280;2024-03-02T05:40:50;6.10;99.90
82901;DHT22;72673;50.822;3.280;2024-03-02T05:43:15;6.00;99.90
82901;DHT22;72673;50.822;3.280;2024-03-02T05:45:41;6.00;99.90
82901;DHT22;72673;50.822;3.280;2024-03-02T05:48:07;6.10;99.90
82901;DHT22;72673;50.822;3.280;2024-03-02T05:50:33;6.10;99.90
82901;DHT22;72673;50.822;3.280;2024-03-02T05:52:59;5.90;99.90
82901;DHT22;72673;50.822;3.280;2024-03-02T05:55:24;6.00;99.90
82901;DHT22;72673;50.822;3.280;2024-03-02T05:57:50;5.90;99.90
82901;DHT22;72673;50.822;3.280;2024-03-02T06:00:31;6.00;99.90
82901;DHT22;72673;50.822;3.280;2024-03-02T06:02:57;6.00;99.90
82901;DHT22;72673;50.822;3.280;2024-03-02T06:05:23;6.00;99.90
82901;DHT22;72673;50.822;3.280;2024-03-02T06:07:49;6.00;99.90
82901;DHT22;72673;50.822;3.280;2024-03-02T06:10:14;6.10;99.90
82901;DHT22;72673;50.822;3.280;2024-03-02T06:12:40;6.10;99.90
82901;DHT22;72673;50.822;3.280;2024-03-02T06:15:06;6.10;99.90
82901;DHT22;72673;50.822;3.280;2024-03-02T06:17:32;6.00;99.90
82901;DHT22;72673;50.822;3.280;2024-03-02T06:19:58;6.00;99.90
82901;DHT22;72673;50.822;3.280;2024-03-02T06:22:23;6.00;99.90
82901;DHT22;72673;50.822;3.280;2024-03-02T06:24:51;6.00;99.90
82901;DHT22;72673;50.822;3.280;2024-03-02T06:27:16;6.00;99.90
82901;DHT22;72673;50.822;3.280;2024-03-02T06:29:42;5.90;99.90
82901;DHT22;72673;50.822;3.280;2024-03-02T06:32:08;5.90;99.90
82901;DHT22;72673;50.822;3.280;2024-03-02T06:34:33;6.00;99.90
82901;DHT22;72673;50.822;3.280;2024-03-02T06:36:59;6.00;99.90
82901;DHT22;72673;50.822;3.280;2024-03-02T06:39:25;6.00;99.90
82901;DHT22;72673;50.822;3.280;2024-03-02T06:41:51;6.00;99.90
82901;DHT22;72673;50.822;3.280;2024-03-02T06:44:17;6.00;99.90
82901;DHT22;72673;50.822;3.280;2024-03-02T06:46:43;6.00;99.90
82901;DHT22;72673;50.822;3.280;2024-03-02T06:49:08;6.00;99.90
82901;DHT22;72673;50.822;3.280;2024-03-02T06:51:36;5.90;99.90
82901;DHT22;72673;50.822;3.280;2024-03-02T06:54:01;5.90;99.90
82901;DHT22;72673;50.822;3.280;2024-03-02T06:56:27;5.90;99.90
82901;DHT22;72673;50.822;3.280;2024-03-02T06:58:53;5.90;99.90
82901;DHT22;72673;50.822;3.280;2024-03-02T07:01:18;6.00;99.90
82901;DHT22;72673;50.822;3.280;2024-03-02T07:03:45;6.10;99.90
82901;DHT22;72673;50.822;3.280;2024-03-02T07:06:11;6.10;99.90
82901;DHT22;72673;50.822;3.280;2024-03-02T07:08:37;6.10;99.90
82901;DHT22;72673;50.822;3.280;2024-03-02T07:11:03;6.10;99.90
82901;DHT22;72673;50.822;3.280;2024-03-02T07:13:28;6.10;99.90
82901;DHT22;72673;50.822;3.280;2024-03-02T07:15:54;6.20;99.90
82901;DHT22;72673;50.822;3.280;2024-03-02T07:18:29;6.20;99.90
82901;DHT22;72673;50.822;3.280;2024-03-02T07:20:57;6.30;99.90
82901;DHT22;72673;50.822;3.280;2024-03-02T07:23:29;6.30;99.90
82901;DHT22;72673;50.822;3.280;2024-03-02T07:25:56;6.30;99.90
82901;DHT22;72673;50.822;3.280;2024-03-02T07:28:27;6.40;99.90
82901;DHT22;72673;50.822;3.280;2024-03-02T07:31:03;6.50;99.90
82901;DHT22;72673;50.822;3.280;2024-03-02T07:33:33;6.60;99.90
82901;DHT22;72673;50.822;3.280;2024-03-02T07:35:59;6.60;99.90
82901;DHT22;72673;50.822;3.280;2024-03-02T07:38:26;6.60;99.90
82901;DHT22;72673;50.822;3.280;2024-03-02T07:40:52;6.70;99.90
82901;DHT22;72673;50.822;3.280;2024-03-02T07:43:19;6.80;99.90
82901;DHT22;72673;50.822;3.280;2024-03-02T07:45:45;6.90;99.90
82901;DHT22;72673;50.822;3.280;2024-03-02T07:48:11;6.80;99.90
82901;DHT22;72673;50.822;3.280;2024-03-02T07:50:37;6.80;99.90
82901;DHT22;72673;50.822;3.280;2024-03-02T07:53:04;6.90;99.90
82901;DHT22;72673;50.822;3.280;2024-03-02T07:55:30;7.00;99.90
82901;DHT22;72673;50.822;3.280;2024-03-02T07:57:56;7.10;99.90
82901;DHT22;72673;50.822;3.280;2024-03-02T08:00:23;7.10;99.90
82901;DHT22;72673;50.822;3.280;2024-03-02T08:02:50;7.30;99.90
82901;DHT22;72673;50.822;3.280;2024-03-02T08:05:16;7.40;99.90
82901;DHT22;72673;50.822;3.280;2024-03-02T08:07:43;7.30;99.90
82901;DHT22;72673;50.822;3.280;2024-03-02T08:10:10;7.40;99.90
82901;DHT22;72673;50.822;3.280;2024-03-02T08:12:36;7.50;99.90
82901;DHT22;72673;50.822;3.280;2024-03-02T08:15:02;7.60;99.90
82901;DHT22;72673;50.822;3.280;2024-03-02T08:17:27;7.70;99.90
82901;DHT22;72673;50.822;3.280;2024-03-02T08:19:53;7.70;99.90
82901;DHT22;72673;50.822;3.280;2024-03-02T08:22:19;7.70;99.90
82901;DHT22;72673;50.822;3.280;2024-03-02T08:24:45;7.70;99.90
82901;DHT22;72673;50.822;3.280;2024-03-02T08:27:11;7.80;99.90
82901;DHT22;72673;50.822;3.280;2024-03-02T08:29:37;7.80;99.90
82901;DHT22;72673;50.822;3.280;2024-03-02T08:32:03;7.80;99.90
82901;DHT22;72673;50.822;3.280;2024-03-02T08:34:29;7.80;99.90
82901;DHT22;72673;50.822;3.280;2024-03-02T08:36:55;7.80;99.90
82901;DHT22;72673;50.822;3.280;2024-03-02T08:39:20;7.90;99.90
82901;DHT22;72673;50.822;3.280;2024-03-02T08:41:46;7.90;99.90
82901;DHT22;72673;50.822;3.280;2024-03-02T08:44:13;8.00;99.90
82901;DHT22;72673;50.822;3.280;2024-03-02T08:46:41;8.00;99.90
82901;DHT22;72673;50.822;3.280;2024-03-02T08:49:07;8.10;99.90
82901;DHT22;72673;50.822;3.280;2024-03-02T08:51:33;8.20;99.90
82901;DHT22;72673;50.822;3.280;2024-03-02T08:53:59;8.40;99.90
82901;DHT22;72673;50.822;3.280;2024-03-02T08:56:25;8.50;99.90
82901;DHT22;72673;50.822;3.280;2024-03-02T08:58:51;8.60;99.90
82901;DHT22;72673;50.822;3.280;2024-03-02T09:01:18;8.60;99.90
82901;DHT22;72673;50.822;3.280;2024-03-02T09:03:45;8.60;99.90
82901;DHT22;72673;50.822;3.280;2024-03-02T09:06:11;8.60;99.90
82901;DHT22;72673;50.822;3.280;2024-03-02T09:08:36;8.60;99.90
82901;DHT22;72673;50.822;3.280;2024-03-02T09:11:07;8.60;99.90
82901;DHT22;72673;50.822;3.280;2024-03-02T09:13:33;8.60;99.90
82901;DHT22;72673;50.822;3.280;2024-03-02T09:15:59;8.80;99.90
82901;DHT22;72673;50.822;3.280;2024-03-02T09:18:24;8.90;99.90
82901;DHT22;72673;50.822;3.280;2024-03-02T09:20:50;9.00;99.90
82901;DHT22;72673;50.822;3.280;2024-03-02T09:23:15;9.00;99.90
82901;DHT22;72673;50.822;3.280;2024-03-02T09:25:41;9.10;99.90
82901;DHT22;72673;50.822;3.280;2024-03-02T09:28:07;9.20;99.90
82901;DHT22;72673;50.822;3.280;2024-03-02T09:30:33;9.40;99.90
82901;DHT22;72673;50.822;3.280;2024-03-02T09:32:58;9.50;99.90
82901;DHT22;72673;50.822;3.280;2024-03-02T09:35:24;9.60;99.90
82901;DHT22;72673;50.822;3.280;2024-03-02T09:37:50;9.70;99.90
82901;DHT22;72673;50.822;3.280;2024-03-02T09:40:15;9.80;99.90
82901;DHT22;72673;50.822;3.280;2024-03-02T09:42:42;9.90;99.90
82901;DHT22;72673;50.822;3.280;2024-03-02T09:45:09;9.90;99.90
82901;DHT22;72673;50.822;3.280;2024-03-02T09:47:34;10.20;99.90
82901;DHT22;72673;50.822;3.280;2024-03-02T09:50:00;10.80;99.90
82901;DHT22;72673;50.822;3.280;2024-03-02T09:52:26;11.50;99.90
82901;DHT22;72673;50.822;3.280;2024-03-02T09:54:52;11.90;99.90
82901;DHT22;72673;50.822;3.280;2024-03-02T09:57:18;11.60;99.90
82901;DHT22;72673;50.822;3.280;2024-03-02T09:59:44;11.30;99.90
82901;DHT22;72673;50.822;3.280;2024-03-02T10:02:10;11.70;99.90
82901;DHT22;72673;50.822;3.280;2024-03-02T10:04:36;12.10;98.50
82901;DHT22;72673;50.822;3.280;2024-03-02T10:07:16;12.10;97.70
82901;DHT22;72673;50.822;3.280;2024-03-02T10:09:44;11.80;99.40
82901;DHT22;72673;50.822;3.280;2024-03-02T10:12:11;11.40;99.90
82901;DHT22;72673;50.822;3.280;2024-03-02T10:14:38;11.00;99.90
82901;DHT22;72673;50.822;3.280;2024-03-02T10:17:08;10.70;99.90
82901;DHT22;72673;50.822;3.280;2024-03-02T10:19:35;10.80;99.90
82901;DHT22;72673;50.822;3.280;2024-03-02T10:22:03;10.80;99.90
82901;DHT22;72673;50.822;3.280;2024-03-02T10:24:41;10.70;99.90
82901;DHT22;72673;50.822;3.280;2024-03-02T10:27:16;10.70;99.90
82901;DHT22;72673;50.822;3.280;2024-03-02T10:29:45;10.70;99.90
82901;DHT22;72673;50.822;3.280;2024-03-02T10:32:11;10.60;99.90
82901;DHT22;72673;50.822;3.280;2024-03-02T10:34:39;10.60;99.90
82901;DHT22;72673;50.822;3.280;2024-03-02T10:37:05;10.60;99.90
82901;DHT22;72673;50.822;3.280;2024-03-02T10:39:32;10.40;99.90
82901;DHT22;72673;50.822;3.280;2024-03-02T10:42:02;10.50;99.90
82901;DHT22;72673;50.822;3.280;2024-03-02T10:44:29;10.50;99.90
82901;DHT22;72673;50.822;3.280;2024-03-02T10:46:55;10.50;99.90
82901;DHT22;72673;50.822;3.280;2024-03-02T10:49:23;10.40;99.90
82901;DHT22;72673;50.822;3.280;2024-03-02T10:51:49;10.40;99.90
82901;DHT22;72673;50.822;3.280;2024-03-02T10:54:15;10.40;99.90
82901;DHT22;72673;50.822;3.280;2024-03-02T10:56:43;10.60;99.90
82901;DHT22;72673;50.822;3.280;2024-03-02T10:59:36;10.60;99.90
82901;DHT22;72673;50.822;3.280;2024-03-02T11:02:04;10.60;99.90
82901;DHT22;72673;50.822;3.280;2024-03-02T11:04:32;10.60;99.90
82901;DHT22;72673;50.822;3.280;2024-03-02T11:07:08;10.70;99.90
82901;DHT22;72673;50.822;3.280;2024-03-02T11:09:40;10.60;99.90
82901;DHT22;72673;50.822;3.280;2024-03-02T11:12:19;10.60;99.90
82901;DHT22;72673;50.822;3.280;2024-03-02T11:14:48;10.60;99.90
82901;DHT22;72673;50.822;3.280;2024-03-02T11:17:16;10.70;99.90
82901;DHT22;72673;50.822;3.280;2024-03-02T11:19:42;10.80;99.90
82901;DHT22;72673;50.822;3.280;2024-03-02T11:22:09;10.70;99.90
82901;DHT22;72673;50.822;3.280;2024-03-02T11:24:35;10.70;99.90
82901;DHT22;72673;50.822;3.280;2024-03-02T11:27:02;10.60;99.90
82901;DHT22;72673;50.822;3.280;2024-03-02T11:32:02;10.70;99.90
82901;DHT22;72673;50.822;3.280;2024-03-02T11:34:33;10.80;99.90
82901;DHT22;72673;50.822;3.280;2024-03-02T11:37:00;10.90;99.90
82901;DHT22;72673;50.822;3.280;2024-03-02T11:39:27;10.90;99.90
82901;DHT22;72673;50.822;3.280;2024-03-02T11:41:53;10.90;99.90
82901;DHT22;72673;50.822;3.280;2024-03-02T11:44:19;11.00;99.90
82901;DHT22;72673;50.822;3.280;2024-03-02T11:46:45;11.00;99.90
82901;DHT22;72673;50.822;3.280;2024-03-02T11:49:15;10.80;99.90
82901;DHT22;72673;50.822;3.280;2024-03-02T11:52:00;10.70;99.90
82901;DHT22;72673;50.822;3.280;2024-03-02T11:54:28;10.70;99.90
82901;DHT22;72673;50.822;3.280;2024-03-02T11:56:56;10.80;99.90
82901;DHT22;72673;50.822;3.280;2024-03-02T11:59:22;10.80;99.90
82901;DHT22;72673;50.822;3.280;2024-03-02T12:01:49;10.80;99.90
82901;DHT22;72673;50.822;3.280;2024-03-02T12:04:15;10.90;99.90
82901;DHT22;72673;50.822;3.280;2024-03-02T12:06:41;10.90;99.90
82901;DHT22;72673;50.822;3.280;2024-03-02T12:09:10;10.90;99.90
82901;DHT22;72673;50.822;3.280;2024-03-02T12:11:40;10.80;99.90
82901;DHT22;72673;50.822;3.280;2024-03-02T12:14:11;10.90;99.90
82901;DHT22;72673;50.822;3.280;2024-03-02T12:16:38;10.90;99.90
82901;DHT22;72673;50.822;3.280;2024-03-02T12:19:05;10.80;99.90
82901;DHT22;72673;50.822;3.280;2024-03-02T12:21:31;10.70;99.90
82901;DHT22;72673;50.822;3.280;2024-03-02T12:23:57;10.60;99.90
82901;DHT22;72673;50.822;3.280;2024-03-02T12:26:23;10.60;99.90
82901;DHT22;72673;50.822;3.280;2024-03-02T12:28:49;10.70;99.90
82901;DHT22;72673;50.822;3.280;2024-03-02T12:31:15;10.70;99.90
82901;DHT22;72673;50.822;3.280;2024-03-02T12:33:41;10.60;99.90
82901;DHT22;72673;50.822;3.280;2024-03-02T12:36:10;10.60;99.90
82901;DHT22;72673;50.822;3.280;2024-03-02T12:38:37;10.60;99.90
82901;DHT22;72673;50.822;3.280;2024-03-02T12:41:03;10.60;99.90
82901;DHT22;72673;50.822;3.280;2024-03-02T12:43:31;10.60;99.90
82901;DHT22;72673;50.822;3.280;2024-03-02T12:45:57;10.60;99.90
82901;DHT22;72673;50.822;3.280;2024-03-02T12:48:23;10.60;99.90
82901;DHT22;72673;50.822;3.280;2024-03-02T12:50:49;10.50;99.90
82901;DHT22;72673;50.822;3.280;2024-03-02T12:53:16;10.50;99.90
82901;DHT22;72673;50.822;3.280;2024-03-02T12:55:42;10.40;99.90
82901;DHT22;72673;50.822;3.280;2024-03-02T12:58:17;10.30;99.90
82901;DHT22;72673;50.822;3.280;2024-03-02T13:00:42;10.30;99.90
82901;DHT22;72673;50.822;3.280;2024-03-02T13:03:08;10.40;99.90
82901;DHT22;72673;50.822;3.280;2024-03-02T13:05:33;10.40;99.90
82901;DHT22;72673;50.822;3.280;2024-03-02T13:08:00;10.50;99.90
82901;DHT22;72673;50.822;3.280;2024-03-02T13:10:28;10.50;99.90
82901;DHT22;72673;50.822;3.280;2024-03-02T13:12:55;10.50;99.90
82901;DHT22;72673;50.822;3.280;2024-03-02T13:15:21;10.50;99.90
82901;DHT22;72673;50.822;3.280;2024-03-02T13:17:46;10.50;99.90
82901;DHT22;72673;50.822;3.280;2024-03-02T13:20:12;10.50;99.90
82901;DHT22;72673;50.822;3.280;2024-03-02T13:22:39;10.60;99.90
82901;DHT22;72673;50.822;3.280;2024-03-02T13:25:05;10.70;99.90
82901;DHT22;72673;50.822;3.280;2024-03-02T13:27:31;10.90;99.90
82901;DHT22;72673;50.822;3.280;2024-03-02T13:29:57;11.20;99.90
82901;DHT22;72673;50.822;3.280;2024-03-02T13:32:24;11.40;99.90
82901;DHT22;72673;50.822;3.280;2024-03-02T13:34:51;11.50;99.90
82901;DHT22;72673;50.822;3.280;2024-03-02T13:37:16;11.50;99.90
82901;DHT22;72673;50.822;3.280;2024-03-02T13:39:42;11.40;99.90
82901;DHT22;72673;50.822;3.280;2024-03-02T13:42:08;11.40;99.90
82901;DHT22;72673;50.822;3.280;2024-03-02T13:44:35;11.20;99.90
82901;DHT22;72673;50.822;3.280;2024-03-02T13:47:01;11.10;99.90
82901;DHT22;72673;50.822;3.280;2024-03-02T13:49:26;11.10;99.90
82901;DHT22;72673;50.822;3.280;2024-03-02T13:52:06;11.10;99.90
82901;DHT22;72673;50.822;3.280;2024-03-02T13:54:43;11.10;99.90
82901;DHT22;72673;50.822;3.280;2024-03-02T13:57:10;11.00;99.90
82901;DHT22;72673;50.822;3.280;2024-03-02T13:59:36;10.90;99.90
82901;DHT22;72673;50.822;3.280;2024-03-02T14:02:03;10.90;99.90
82901;DHT22;72673;50.822;3.280;2024-03-02T14:04:33;10.90;99.90
82901;DHT22;72673;50.822;3.280;2024-03-02T14:06:59;10.80;99.90
82901;DHT22;72673;50.822;3.280;2024-03-02T14:09:25;10.80;99.90
82901;DHT22;72673;50.822;3.280;2024-03-02T14:11:51;10.90;99.90
82901;DHT22;72673;50.822;3.280;2024-03-02T14:14:17;10.90;99.90
82901;DHT22;72673;50.822;3.280;2024-03-02T14:16:43;10.90;99.90
82901;DHT22;72673;50.822;3.280;2024-03-02T14:19:09;10.90;99.90
82901;DHT22;72673;50.822;3.280;2024-03-02T14:21:35;10.90;99.90
82901;DHT22;72673;50.822;3.280;2024-03-02T14:24:01;11.00;99.90
82901;DHT22;72673;50.822;3.280;2024-03-02T14:26:27;11.30;99.90
82901;DHT22;72673;50.822;3.280;2024-03-02T14:28:54;11.30;99.90
82901;DHT22;72673;50.822;3.280;2024-03-02T14:31:19;11.40;99.90
82901;DHT22;72673;50.822;3.280;2024-03-02T14:33:46;11.40;99.90
82901;DHT22;72673;50.822;3.280;2024-03-02T14:36:11;11.40;99.90
82901;DHT22;72673;50.822;3.280;2024-03-02T14:38:38;11.50;99.90
82901;DHT22;72673;50.822;3.280;2024-03-02T14:41:04;11.70;99.90
82901;DHT22;72673;50.822;3.280;2024-03-02T14:43:29;11.90;99.90
82901;DHT22;72673;50.822;3.280;2024-03-02T14:45:55;11.80;99.90
82901;DHT22;72673;50.822;3.280;2024-03-02T14:48:21;12.00;99.90
82901;DHT22;72673;50.822;3.280;2024-03-02T14:50:47;11.90;99.90
82901;DHT22;72673;50.822;3.280;2024-03-02T14:53:13;11.90;99.90
82901;DHT22;72673;50.822;3.280;2024-03-02T14:55:38;12.00;99.90
82901;DHT22;72673;50.822;3.280;2024-03-02T14:58:04;12.00;99.90
82901;DHT22;72673;50.822;3.280;2024-03-02T15:00:29;12.00;99.90
82901;DHT22;72673;50.822;3.280;2024-03-02T15:02:55;11.90;99.90
82901;DHT22;72673;50.822;3.280;2024-03-02T15:05:21;11.80;99.90
82901;DHT22;72673;50.822;3.280;2024-03-02T15:07:46;11.60;99.90
82901;DHT22;72673;50.822;3.280;2024-03-02T15:10:12;11.60;99.90
82901;DHT22;72673;50.822;3.280;2024-03-02T15:12:38;11.50;99.90
82901;DHT22;72673;50.822;3.280;2024-03-02T15:15:04;11.50;99.90
82901;DHT22;72673;50.822;3.280;2024-03-02T15:17:29;11.40;99.90
82901;DHT22;72673;50.822;3.280;2024-03-02T15:19:55;11.30;99.90
82901;DHT22;72673;50.822;3.280;2024-03-02T15:22:21;11.10;99.90
82901;DHT22;72673;50.822;3.280;2024-03-02T15:24:46;10.60;99.90
82901;DHT22;72673;50.822;3.280;2024-03-02T15:27:12;10.20;99.90
82901;DHT22;72673;50.822;3.280;2024-03-02T15:29:39;10.40;99.90
82901;DHT22;72673;50.822;3.280;2024-03-02T15:32:05;10.10;99.90
82901;DHT22;72673;50.822;3.280;2024-03-02T15:34:32;9.90;99.90
82901;DHT22;72673;50.822;3.280;2024-03-02T15:36:58;9.70;99.90
82901;DHT22;72673;50.822;3.280;2024-03-02T15:39:25;9.50;99.90
82901;DHT22;72673;50.822;3.280;2024-03-02T15:41:50;9.20;99.90